Time;durP1;ratioP1;P1;durP2;ratioP2;P2;SDS_P1;SDS_P2;PMS_P1;PMS_P2;Temp;Humidity;BMP_temperature;BMP_pressure;BME280_temperature;BME280_humidity;BME280_pressure;Samples;Min_cycle;Max_cycle;Signal;HPM_P1;HPM_P2
2022/09/15 00:00:30;;;;;;;7.90;5.53;;;14.70;99.90;;;;;;5076845;28;20442;-77
2022/09/15 00:02:57;;;;;;;6.20;4.70;;;14.70;99.90;;;;;;5075919;28;20853;-77
2022/09/15 00:05:23;;;;;;;10.23;6.80;;;14.70;99.90;;;;;;5076202;28;20445;-77
2022/09/15 00:07:50;;;;;;;14.30;5.20;;;14.70;99.90;;;;;;5075554;28;20470;-77
2022/09/15 00:10:18;;;;;;;10.40;6.47;;;14.60;99.90;;;;;;5076530;28;20799;-77
2022/09/15 00:12:45;;;;;;;9.63;6.10;;;14.60;99.90;;;;;;5078630;28;20534;-77
2022/09/15 00:15:13;;;;;;;11.43;6.23;;;14.50;99.90;;;;;;5076716;28;20448;-77
2022/09/15 00:17:40;;;;;;;7.83;5.53;;;14.60;99.90;;;;;;5076067;28;20922;-77
2022/09/15 00:20:08;;;;;;;8.50;5.17;;;14.60;99.90;;;;;;5075607;28;20461;-77
2022/09/15 00:22:35;;;;;;;11.30;5.33;;;14.60;99.90;;;;;;5075293;28;20939;-77
2022/09/15 00:25:02;;;;;;;10.10;4.93;;;14.60;99.90;;;;;;5075521;28;20985;-77
2022/09/15 00:27:31;;;;;;;6.47;4.80;;;14.60;99.90;;;;;;5075606;28;20498;-77
2022/09/15 00:29:58;;;;;;;5.40;4.00;;;14.60;99.90;;;;;;5075034;28;20541;-77
2022/09/15 00:32:25;;;;;;;11.63;4.33;;;14.60;99.90;;;;;;5075087;28;20477;-77
2022/09/15 00:34:52;;;;;;;9.83;4.60;;;14.60;99.90;;;;;;5075118;28;20456;-77
2022/09/15 00:37:19;;;;;;;4.60;4.10;;;14.50;99.90;;;;;;5074656;28;20989;-77
2022/09/15 00:39:46;;;;;;;8.43;3.50;;;14.50;99.90;;;;;;5074882;28;20468;-77
2022/09/15 00:42:15;;;;;;;6.17;4.33;;;14.60;99.90;;;;;;5074862;28;20445;-77
2022/09/15 00:44:53;;;;;;;9.67;4.20;;;14.60;99.90;;;;;;5075738;28;20448;-77
2022/09/15 00:47:23;;;;;;;5.20;3.77;;;14.50;99.90;;;;;;5075851;28;20433;-77
2022/09/15 00:49:54;;;;;;;6.23;3.53;;;14.50;99.90;;;;;;5074666;28;20527;-77
2022/09/15 00:52:25;;;;;;;9.03;4.20;;;14.50;99.90;;;;;;5074959;28;20875;-77
2022/09/15 00:54:55;;;;;;;9.43;6.37;;;14.50;99.90;;;;;;5075127;28;20448;-77
2022/09/15 00:57:25;;;;;;;5.17;4.17;;;14.50;99.90;;;;;;5075058;28;20421;-77
2022/09/15 00:59:57;;;;;;;10.40;4.10;;;14.40;99.90;;;;;;5074658;28;20464;-77
2022/09/15 01:02:27;;;;;;;8.73;5.40;;;14.30;99.90;;;;;;5074182;28;20452;-78
2022/09/15 01:04:56;;;;;;;6.97;4.83;;;14.30;99.90;;;;;;5074312;28;20814;-77
2022/09/15 01:07:27;;;;;;;7.00;4.63;;;14.20;99.90;;;;;;5074314;28;20445;-77
2022/09/15 01:09:57;;;;;;;8.93;5.30;;;14.20;99.90;;;;;;5074292;28;20461;-77
2022/09/15 01:12:25;;;;;;;5.63;4.60;;;14.20;99.90;;;;;;5074100;28;20480;-77
2022/09/15 01:14:54;;;;;;;11.00;5.10;;;14.10;99.90;;;;;;5074160;28;20935;-78
2022/09/15 01:17:34;;;;;;;6.00;4.93;;;14.10;99.90;;;;;;5074066;28;20510;-77
2022/09/15 01:20:33;;;;;;;9.83;4.40;;;14.20;99.90;;;;;;5074174;28;20465;-77
2022/09/15 01:23:17;;;;;;;4.33;3.90;;;14.20;99.90;;;;;;5074180;28;20438;-77
2022/09/15 01:26:09;;;;;;;6.60;4.20;;;14.20;99.90;;;;;;5074122;28;20440;-77
2022/09/15 01:29:06;;;;;;;5.63;5.03;;;14.10;99.90;;;;;;5074080;28;20468;-77
2022/09/15 01:33:02;;;;;;;8.20;5.77;;;14.00;99.90;;;;;;5074807;28;20476;-77
2022/09/15 01:34:33;;;;;;;7.10;4.50;;;14.00;99.90;;;;;;5073758;28;20441;-76
2022/09/15 01:37:04;;;;;;;11.00;4.63;;;14.00;99.90;;;;;;5074107;28;20435;-77
2022/09/15 01:39:37;;;;;;;9.27;5.37;;;14.00;99.90;;;;;;5074546;28;20464;-76
2022/09/15 01:42:07;;;;;;;10.43;5.13;;;14.00;99.90;;;;;;5076711;28;20429;-76
2022/09/15 01:44:38;;;;;;;13.33;5.23;;;14.00;99.90;;;;;;5073791;28;20452;-77
2022/09/15 01:47:09;;;;;;;6.40;4.30;;;13.90;99.90;;;;;;5073847;28;20432;-77
2022/09/15 01:49:42;;;;;;;10.93;5.53;;;14.00;99.90;;;;;;5094560;22;20551;-75
2022/09/15 01:52:08;;;;;;;7.73;5.70;;;13.90;99.90;;;;;;5073654;28;20514;-74
2022/09/15 01:54:43;;;;;;;5.13;4.63;;;13.90;99.90;;;;;;5073809;28;20445;-74
2022/09/15 01:57:10;;;;;;;8.23;4.03;;;13.90;99.90;;;;;;5073402;28;20431;-75
2022/09/15 01:59:36;;;;;;;6.90;4.37;;;13.90;99.90;;;;;;5073810;28;20465;-74
2022/09/15 02:02:09;;;;;;;6.93;4.43;;;13.90;99.90;;;;;;5073735;28;20486;-74
2022/09/15 02:04:40;;;;;;;6.27;4.50;;;13.90;99.90;;;;;;5076107;28;20482;-74
2022/09/15 02:07:13;;;;;;;6.37;3.73;;;13.90;99.90;;;;;;5073654;28;20433;-74
2022/09/15 02:09:45;;;;;;;6.40;4.43;;;13.90;99.90;;;;;;5073190;28;20993;-74
2022/09/15 02:12:20;;;;;;;7.20;4.47;;;13.80;99.90;;;;;;5073155;28;20461;-75
2022/09/15 02:14:55;;;;;;;4.70;4.27;;;13.90;99.90;;;;;;5073261;28;20497;-74
2022/09/15 02:17:26;;;;;;;4.73;4.27;;;13.90;99.90;;;;;;5073441;28;20515;-74
2022/09/15 02:19:57;;;;;;;4.63;3.70;;;13.90;99.90;;;;;;5073113;28;20465;-74
2022/09/15 02:22:26;;;;;;;6.60;4.57;;;13.90;99.90;;;;;;5073215;28;20429;-74
2022/09/15 02:24:56;;;;;;;10.17;4.30;;;13.80;99.90;;;;;;5073171;28;20870;-75
2022/09/15 02:27:26;;;;;;;5.07;4.30;;;13.70;99.90;;;;;;5073059;28;20494;-74
2022/09/15 02:29:57;;;;;;;5.07;4.57;;;13.70;99.90;;;;;;5072931;28;20469;-75
2022/09/15 02:32:28;;;;;;;8.60;4.17;;;13.60;99.90;;;;;;5073010;28;20467;-74
2022/09/15 02:34:57;;;;;;;10.47;4.57;;;13.60;99.90;;;;;;5073054;28;20437;-74
2022/09/15 02:37:25;;;;;;;10.17;4.20;;;13.70;99.90;;;;;;5073019;28;20444;-74
2022/09/15 02:39:56;;;;;;;8.73;5.03;;;13.60;99.90;;;;;;5072971;28;20522;-74
2022/09/15 02:42:24;;;;;;;8.53;4.47;;;13.70;99.90;;;;;;5072986;28;20946;-75
2022/09/15 02:44:51;;;;;;;9.60;4.80;;;13.70;99.90;;;;;;5072955;28;20551;-74
2022/09/15 02:47:18;;;;;;;7.10;4.57;;;13.70;99.90;;;;;;5073096;28;20498;-75
2022/09/15 02:49:46;;;;;;;5.43;5.03;;;13.60;99.90;;;;;;5072633;28;20855;-75
2022/09/15 02:52:13;;;;;;;5.97;4.57;;;13.60;99.90;;;;;;5073119;28;20530;-74
2022/09/15 02:54:40;;;;;;;15.97;6.13;;;13.60;99.90;;;;;;5072968;28;20510;-74
2022/09/15 02:57:06;;;;;;;12.70;4.73;;;13.70;99.90;;;;;;5072960;28;20448;-75
2022/09/15 03:02:14;;;;;;;6.53;4.57;;;13.60;99.90;;;;;;5075610;28;20420;-74
2022/09/15 03:04:40;;;;;;;6.93;5.77;;;13.70;99.90;;;;;;5076613;28;20486;-74
2022/09/15 03:07:08;;;;;;;9.73;4.73;;;13.60;99.90;;;;;;5076850;28;20451;-74
2022/09/15 03:09:36;;;;;;;6.70;4.67;;;13.60;99.90;;;;;;5076655;28;20463;-75
2022/09/15 03:12:02;;;;;;;7.17;4.50;;;13.60;99.90;;;;;;5076578;28;20846;-74
2022/09/15 03:14:31;;;;;;;9.23;5.33;;;13.70;99.90;;;;;;5076471;28;20430;-74
2022/09/15 03:16:58;;;;;;;6.50;4.50;;;13.60;99.90;;;;;;5076187;28;20954;-74
2022/09/15 03:19:25;;;;;;;6.67;4.93;;;13.50;99.90;;;;;;5076255;28;20460;-74
2022/09/15 03:21:52;;;;;;;6.50;5.13;;;13.50;99.90;;;;;;5076352;28;20447;-74
2022/09/15 03:24:21;;;;;;;8.53;5.03;;;13.50;99.90;;;;;;5076307;28;20452;-74
2022/09/15 03:26:49;;;;;;;9.77;5.00;;;13.40;99.90;;;;;;5076285;28;20484;-74
2022/09/15 03:29:16;;;;;;;6.10;4.87;;;13.40;99.90;;;;;;5076149;28;20468;-74
2022/09/15 03:31:43;;;;;;;7.63;4.60;;;13.40;99.90;;;;;;5076136;28;20891;-74
2022/09/15 03:34:09;;;;;;;9.90;5.03;;;13.40;99.90;;;;;;5076179;28;20480;-74
2022/09/15 03:36:37;;;;;;;5.40;3.87;;;13.40;99.90;;;;;;5075891;28;20448;-74
2022/09/15 03:39:04;;;;;;;15.73;5.63;;;13.30;99.90;;;;;;5076141;28;20585;-74
2022/09/15 03:41:32;;;;;;;8.83;5.33;;;13.40;99.90;;;;;;5076091;28;20449;-74
2022/09/15 03:43:58;;;;;;;5.63;5.00;;;13.40;99.90;;;;;;5075910;28;20788;-74
2022/09/15 03:46:25;;;;;;;8.03;4.97;;;13.30;99.90;;;;;;5075951;28;20966;-76
2022/09/15 03:48:51;;;;;;;6.00;5.10;;;13.30;99.90;;;;;;5076170;28;20480;-75
2022/09/15 03:51:19;;;;;;;6.93;4.73;;;13.40;99.90;;;;;;5075544;28;20506;-76
2022/09/15 03:53:45;;;;;;;7.80;6.30;;;13.40;99.90;;;;;;5075884;28;20472;-75
2022/09/15 03:56:18;;;;;;;5.63;5.13;;;13.30;99.90;;;;;;5075907;28;20969;-75
2022/09/15 03:58:46;;;;;;;7.33;4.23;;;13.20;99.90;;;;;;5075754;28;20473;-75
2022/09/15 04:01:13;;;;;;;8.80;5.57;;;13.20;99.90;;;;;;5075658;28;20494;-75
2022/09/15 04:03:40;;;;;;;5.90;4.50;;;13.30;99.90;;;;;;5075606;28;20951;-75
2022/09/15 04:06:07;;;;;;;7.40;5.30;;;13.20;99.90;;;;;;5075570;28;20498;-74
2022/09/15 04:08:34;;;;;;;7.23;4.47;;;13.30;99.90;;;;;;5075479;28;20452;-75
2022/09/15 04:11:04;;;;;;;6.50;5.57;;;13.20;99.90;;;;;;5075850;28;20514;-75
2022/09/15 04:13:31;;;;;;;9.03;5.30;;;13.30;99.90;;;;;;5075447;28;20542;-75
2022/09/15 04:16:00;;;;;;;9.13;5.07;;;13.20;99.90;;;;;;5075489;28;20524;-75
2022/09/15 04:18:27;;;;;;;8.00;5.10;;;12.90;99.90;;;;;;5075465;28;20886;-75
2022/09/15 04:20:53;;;;;;;10.73;6.37;;;13.10;99.90;;;;;;5075230;28;20449;-75
2022/09/15 04:23:20;;;;;;;5.70;5.20;;;13.10;99.90;;;;;;5075432;28;20436;-75
2022/09/15 04:25:55;;;;;;;10.67;5.50;;;13.10;99.90;;;;;;5075298;28;20449;-75
2022/09/15 04:28:22;;;;;;;9.15;5.60;;;13.00;99.90;;;;;;5074457;28;20437;-75
2022/09/15 04:30:48;;;;;;;8.07;5.40;;;13.10;99.90;;;;;;5074812;28;20487;-75
2022/09/15 04:33:16;;;;;;;10.27;5.60;;;13.10;99.90;;;;;;5075213;28;20476;-75
2022/09/15 04:35:43;;;;;;;10.53;6.83;;;13.10;99.90;;;;;;5075202;28;20494;-75
2022/09/15 04:38:10;;;;;;;21.53;13.77;;;13.10;99.90;;;;;;5075799;28;20564;-75
2022/09/15 04:40:36;;;;;;;12.87;7.43;;;13.10;99.90;;;;;;5075274;28;20464;-75
2022/09/15 04:43:03;;;;;;;15.20;8.10;;;13.10;99.90;;;;;;5076412;28;20445;-75
2022/09/15 04:45:32;;;;;;;8.33;5.50;;;13.20;99.90;;;;;;5077231;28;20444;-74
2022/09/15 04:47:59;;;;;;;10.30;5.97;;;13.10;99.90;;;;;;5077892;28;20879;-75
2022/09/15 04:50:27;;;;;;;13.50;7.20;;;13.20;99.90;;;;;;5078327;28;20983;-75
2022/09/15 04:52:53;;;;;;;7.70;6.23;;;13.10;99.90;;;;;;5079082;28;20484;-75
2022/09/15 04:55:20;;;;;;;10.43;6.10;;;13.10;99.90;;;;;;5077183;28;20950;-76
2022/09/15 04:57:47;;;;;;;7.43;6.40;;;13.00;99.90;;;;;;5076423;28;20444;-75
2022/09/15 05:00:15;;;;;;;17.33;7.47;;;13.00;99.90;;;;;;5074719;28;20465;-75
2022/09/15 05:02:42;;;;;;;11.00;6.40;;;13.00;99.90;;;;;;5074426;28;20441;-76
2022/09/15 05:05:09;;;;;;;12.73;6.87;;;13.00;99.90;;;;;;5075201;28;20502;-75
2022/09/15 05:07:37;;;;;;;12.63;8.70;;;13.10;99.90;;;;;;5074682;28;20445;-74
2022/09/15 05:10:04;;;;;;;8.50;6.53;;;13.10;99.90;;;;;;5075566;28;20510;-75
2022/09/15 05:12:31;;;;;;;11.97;7.60;;;13.10;99.90;;;;;;5074354;28;20479;-75
2022/09/15 05:14:57;;;;;;;7.80;6.13;;;13.10;99.90;;;;;;5073957;28;20456;-75
2022/09/15 05:17:24;;;;;;;9.33;6.47;;;13.10;99.90;;;;;;5074249;28;20448;-75
2022/09/15 05:19:51;;;;;;;15.73;7.53;;;13.10;99.90;;;;;;5073797;28;20475;-75
2022/09/15 05:22:17;;;;;;;10.60;6.90;;;13.10;99.90;;;;;;5073445;28;20449;-75
2022/09/15 05:24:46;;;;;;;14.03;6.60;;;13.20;99.90;;;;;;5073986;28;20931;-76
2022/09/15 05:27:12;;;;;;;11.83;6.83;;;13.20;99.90;;;;;;5073829;28;20448;-75
2022/09/15 05:29:39;;;;;;;11.90;6.23;;;13.20;99.90;;;;;;5073918;28;20514;-75
2022/09/15 05:32:06;;;;;;;9.23;6.33;;;13.20;99.90;;;;;;5073835;28;20445;-75
2022/09/15 05:34:32;;;;;;;10.40;6.57;;;13.20;99.90;;;;;;5073748;28;20480;-75
2022/09/15 05:36:59;;;;;;;10.57;8.13;;;13.20;99.90;;;;;;5073680;28;20449;-75
2022/09/15 05:39:26;;;;;;;12.80;6.50;;;13.30;99.90;;;;;;5073527;28;20473;-75
2022/09/15 05:41:54;;;;;;;8.20;7.30;;;13.30;99.90;;;;;;5073522;28;20865;-75
2022/09/15 05:44:20;;;;;;;14.03;7.30;;;13.40;99.90;;;;;;5074429;28;20802;-76
2022/09/15 05:46:47;;;;;;;11.13;6.10;;;13.40;99.90;;;;;;5073802;28;20444;-74
2022/09/15 05:49:14;;;;;;;7.50;5.93;;;13.40;99.90;;;;;;5073363;28;20477;-74
2022/09/15 05:51:41;;;;;;;9.33;6.50;;;13.40;99.90;;;;;;5073594;28;20954;-75
2022/09/15 05:54:07;;;;;;;10.53;6.23;;;13.50;99.90;;;;;;5073398;28;20530;-75
2022/09/15 05:56:34;;;;;;;12.57;7.53;;;13.50;99.90;;;;;;5073011;28;20502;-74
2022/09/15 05:59:02;;;;;;;10.87;6.37;;;13.50;99.90;;;;;;5073234;28;20468;-74
2022/09/15 06:01:30;;;;;;;11.97;7.03;;;13.60;99.90;;;;;;5073593;28;20446;-75
2022/09/15 06:03:57;;;;;;;26.37;16.43;;;13.70;99.90;;;;;;5073077;28;20944;-74
2022/09/15 06:06:25;;;;;;;22.20;13.60;;;13.80;99.90;;;;;;5073465;28;20799;-74
2022/09/15 06:08:54;;;;;;;32.30;17.07;;;13.70;99.90;;;;;;5073265;28;20574;-74
2022/09/15 06:11:22;;;;;;;21.37;14.30;;;13.80;99.90;;;;;;5074001;28;20455;-75
2022/09/15 06:13:49;;;;;;;27.57;17.63;;;13.90;99.90;;;;;;5073477;28;20526;-75
2022/09/15 06:16:20;;;;;;;14.83;9.80;;;13.90;99.90;;;;;;5073192;28;20467;-75
2022/09/15 06:18:48;;;;;;;10.57;7.93;;;13.90;99.90;;;;;;5073086;28;20469;-74
2022/09/15 06:21:16;;;;;;;11.73;8.00;;;14.00;99.90;;;;;;5072983;28;20947;-75
2022/09/15 06:23:44;;;;;;;6.87;4.80;;;14.00;99.90;;;;;;5072675;28;20482;-74
2022/09/15 06:26:12;;;;;;;7.83;5.23;;;14.10;99.90;;;;;;5072948;28;20487;-74
2022/09/15 06:28:41;;;;;;;6.30;4.87;;;14.20;99.90;;;;;;5072915;28;20490;-74
2022/09/15 06:31:11;;;;;;;7.63;6.17;;;14.30;99.90;;;;;;5073201;28;20453;-74
2022/09/15 06:33:42;;;;;;;8.00;6.17;;;14.30;99.90;;;;;;5073566;28;20826;-75
2022/09/15 06:36:10;;;;;;;16.07;10.53;;;14.40;99.90;;;;;;5081687;28;20453;-74
2022/09/15 06:38:36;;;;;;;6.10;4.60;;;14.90;99.90;;;;;;5080930;28;20448;-74
2022/09/15 06:41:03;;;;;;;7.00;5.20;;;14.60;99.90;;;;;;5079756;28;20839;-74
2022/09/15 06:43:31;;;;;;;8.17;5.83;;;14.70;99.90;;;;;;5079758;28;20490;-75
2022/09/15 06:46:02;;;;;;;7.30;3.47;;;14.80;99.90;;;;;;5080695;28;20448;-75
2022/09/15 06:48:30;;;;;;;7.63;4.50;;;14.80;99.90;;;;;;5079427;28;20486;-74
2022/09/15 06:50:59;;;;;;;6.83;3.80;;;14.90;99.90;;;;;;5079600;28;20861;-74
2022/09/15 06:53:25;;;;;;;4.40;3.83;;;14.90;99.90;;;;;;5079140;28;20522;-74
2022/09/15 06:55:53;;;;;;;5.23;4.07;;;15.00;99.90;;;;;;5079528;28;20477;-75
2022/09/15 06:58:20;;;;;;;5.30;3.80;;;14.80;99.90;;;;;;5079156;28;20444;-75
2022/09/15 07:00:46;;;;;;;5.70;3.73;;;15.10;99.90;;;;;;5079392;28;20448;-75
2022/09/15 07:03:13;;;;;;;6.53;3.87;;;15.10;99.90;;;;;;5079592;28;20445;-75
2022/09/15 07:05:40;;;;;;;4.97;3.43;;;15.20;99.90;;;;;;5079397;28;20466;-75
2022/09/15 07:08:08;;;;;;;4.63;3.53;;;15.20;99.90;;;;;;5079007;28;20444;-75
2022/09/15 07:10:35;;;;;;;3.67;3.37;;;15.20;99.90;;;;;;5078663;28;20469;-75
2022/09/15 07:13:02;;;;;;;5.67;3.80;;;15.30;99.90;;;;;;5078725;28;20483;-75
2022/09/15 07:15:30;;;;;;;5.93;3.93;;;15.30;99.90;;;;;;5079138;28;20456;-74
2022/09/15 07:17:56;;;;;;;4.10;3.57;;;15.30;99.90;;;;;;5079461;28;20454;-75
2022/09/15 07:20:24;;;;;;;7.57;4.73;;;15.20;99.90;;;;;;5079124;28;20867;-76
2022/09/15 07:22:51;;;;;;;8.63;3.80;;;15.20;99.90;;;;;;5079345;28;20445;-75
2022/09/15 07:25:19;;;;;;;3.50;3.03;;;15.30;99.90;;;;;;5078919;28;20448;-75
2022/09/15 07:27:45;;;;;;;3.80;3.40;;;15.30;99.90;;;;;;5079122;28;20857;-75
2022/09/15 07:30:13;;;;;;;5.77;3.43;;;15.30;99.90;;;;;;5080274;28;20878;-75
2022/09/15 07:32:40;;;;;;;6.43;2.93;;;15.30;53.90;;;;;;5080074;28;20498;-75
2022/09/15 07:35:07;;;;;;;6.93;3.73;;;15.30;99.90;;;;;;5079520;28;20480;-75
2022/09/15 07:37:34;;;;;;;5.10;4.03;;;15.30;99.90;;;;;;5079115;28;20946;-75
2022/09/15 07:40:02;;;;;;;6.40;4.90;;;15.30;99.90;;;;;;5079263;28;20548;-75
2022/09/15 07:42:31;;;;;;;4.23;3.33;;;15.40;99.90;;;;;;5079256;28;20454;-75
2022/09/15 07:44:57;;;;;;;5.30;3.40;;;15.40;99.90;;;;;;5079120;28;20792;-75
2022/09/15 07:47:24;;;;;;;5.93;3.40;;;15.40;12.10;;;;;;5075427;28;20448;-75
2022/09/15 07:49:53;;;;;;;5.27;3.50;;;15.00;87.80;;;;;;5097510;22;20491;-77
2022/09/15 07:52:20;;;;;;;5.87;3.67;;;15.10;99.90;;;;;;5075995;28;20452;-77
2022/09/15 07:54:46;;;;;;;4.70;3.00;;;15.10;23.10;;;;;;5075938;28;20473;-77
2022/09/15 07:57:13;;;;;;;6.13;3.67;;;15.10;19.00;;;;;;5075659;28;20942;-77
2022/09/15 07:59:41;;;;;;;3.53;3.23;;;15.10;1.00;;;;;;5075907;28;20465;-76
2022/09/15 08:02:15;;;;;;;4.30;3.60;;;15.20;1.00;;;;;;5076299;28;20498;-77
2022/09/15 08:04:42;;;;;;;7.20;3.63;;;15.30;1.00;;;;;;5076176;28;20429;-77
2022/09/15 08:07:17;;;;;;;5.70;3.20;;;15.20;1.00;;;;;;5076390;28;20449;-77
2022/09/15 08:10:21;;;;;;;8.13;3.53;;;15.50;1.00;;;;;;5077796;28;20464;-77
2022/09/15 08:12:56;;;;;;;5.27;3.90;;;;;;;;;;5076172;28;20498;-78
2022/09/15 08:15:52;;;;;;;7.53;3.47;;;15.50;1.00;;;;;;5075142;28;20566;-77
2022/09/15 08:18:19;;;;;;;3.43;3.23;;;15.50;1.00;;;;;;5068015;28;20979;-77
2022/09/15 08:20:46;;;;;;;7.63;3.23;;;15.60;1.00;;;;;;5075512;28;20473;-77
2022/09/15 08:23:12;;;;;;;4.50;2.70;;;15.60;99.90;;;;;;5075369;28;20997;-78
2022/09/15 08:25:39;;;;;;;7.53;3.30;;;15.80;99.90;;;;;;5074888;28;20959;-77
2022/09/15 08:28:06;;;;;;;8.90;3.57;;;15.60;40.60;;;;;;5075778;28;20449;-76
2022/09/15 08:30:34;;;;;;;4.77;2.70;;;15.60;1.00;;;;;;5075529;28;20472;-77
2022/09/15 08:33:01;;;;;;;3.80;3.07;;;15.40;99.90;;;;;;5075421;28;20449;-77
2022/09/15 08:35:30;;;;;;;8.00;3.43;;;15.60;99.90;;;;;;5075134;28;20514;-77
2022/09/15 08:37:56;;;;;;;4.87;3.40;;;15.60;99.90;;;;;;5074843;28;20503;-77
2022/09/15 08:40:28;;;;;;;3.67;2.57;;;15.70;1.00;;;;;;5075143;28;20461;-77
2022/09/15 08:43:01;;;;;;;3.67;3.17;;;15.70;1.00;;;;;;5074965;28;20433;-77
2022/09/15 08:45:32;;;;;;;8.47;3.50;;;15.80;1.00;;;;;;5075985;28;20888;-78
2022/09/15 08:48:06;;;;;;;5.90;2.80;;;15.90;1.00;;;;;;5075996;28;20749;-77
2022/09/15 08:50:37;;;;;;;3.07;2.40;;;16.00;1.00;;;;;;5075052;28;20478;-77
2022/09/15 08:53:08;;;;;;;4.10;2.67;;;16.00;1.00;;;;;;5075364;28;20437;-77
2022/09/15 08:55:40;;;;;;;2.90;2.70;;;16.00;1.00;;;;;;5075219;28;20966;-78
2022/09/15 08:58:13;;;;;;;3.87;2.73;;;16.10;1.00;;;;;;5073793;28;20784;-78
2022/09/15 09:00:41;;;;;;;6.67;2.57;;;16.10;50.40;;;;;;5076202;28;20461;-77
2022/09/15 09:03:36;;;;;;;6.73;2.27;;;16.20;99.90;;;;;;5075360;28;20524;-77
2022/09/15 09:06:11;;;;;;;9.27;3.23;;;16.20;26.90;;;;;;5075314;28;20453;-77
2022/09/15 09:09:01;;;;;;;2.23;1.87;;;16.20;99.90;;;;;;5074831;28;20428;-77
2022/09/15 09:15:48;;;;;;;5.30;2.67;;;16.40;98.80;;;;;;5084734;28;20937;-78
2022/09/15 09:18:45;;;;;;;4.43;1.97;;;16.70;1.00;;;;;;5056836;28;20461;-77
2022/09/15 09:21:21;;;;;;;6.17;2.83;;;16.40;1.00;;;;;;5074088;28;20967;-77
2022/09/15 09:23:54;;;;;;;7.60;5.37;;;16.30;1.00;;;;;;5075573;28;20440;-77
2022/09/15 09:26:21;;;;;;;3.30;2.73;;;16.30;99.90;;;;;;5074686;28;20429;-78
2022/09/15 09:28:54;;;;;;;10.30;2.60;;;16.50;1.00;;;;;;5074705;28;20952;-77
2022/09/15 09:31:24;;;;;;;4.80;2.10;;;16.30;1.00;;;;;;5074359;28;20479;-77
2022/09/15 09:33:58;;;;;;;4.63;2.03;;;16.40;99.90;;;;;;5074182;28;20492;-77
2022/09/15 09:36:26;;;;;;;2.57;2.00;;;16.30;1.00;;;;;;5073828;28;20425;-77
2022/09/15 09:38:53;;;;;;;8.30;2.40;;;16.30;99.90;;;;;;5074549;28;20494;-77
2022/09/15 09:41:24;;;;;;;3.73;2.30;;;16.30;50.80;;;;;;5073665;28;21001;-77
2022/09/15 09:43:52;;;;;;;6.53;2.97;;;16.50;1.00;;;;;;5074160;28;20429;-77
2022/09/15 09:46:20;;;;;;;4.30;1.97;;;16.50;1.00;;;;;;5074167;28;20494;-77
2022/09/15 09:48:50;;;;;;;2.10;1.90;;;16.80;1.00;;;;;;5073852;28;20452;-77
2022/09/15 09:51:33;;;;;;;2.90;1.90;;;16.70;1.00;;;;;;5074332;28;20432;-77
2022/09/15 09:54:11;;;;;;;2.77;1.90;;;16.70;1.00;;;;;;5073131;28;20469;-77
2022/09/15 09:56:38;;;;;;;4.67;2.40;;;16.80;1.00;;;;;;5074394;28;20899;-77
2022/09/15 09:59:05;;;;;;;2.90;2.33;;;16.80;1.00;;;;;;5080372;28;20461;-77
2022/09/15 10:01:32;;;;;;;18.67;10.03;;;16.80;1.00;;;;;;5074151;28;20437;-77
2022/09/15 10:04:13;;;;;;;4.97;3.07;;;16.90;1.00;;;;;;5073699;28;20449;-77
2022/09/15 10:06:41;;;;;;;4.27;2.17;;;16.90;1.00;;;;;;5074144;28;20448;-78
2022/09/15 10:09:13;;;;;;;4.50;1.67;;;16.90;1.00;;;;;;5077561;28;20457;-77
2022/09/15 10:11:43;;;;;;;3.43;2.13;;;17.00;1.00;;;;;;5075788;28;20426;-77
2022/09/15 10:14:19;;;;;;;6.57;2.63;;;17.00;1.00;;;;;;5074674;28;20505;-78
2022/09/15 10:17:00;;;;;;;3.53;1.90;;;17.00;99.90;;;;;;5075358;28;20436;-77
2022/09/15 10:19:28;;;;;;;3.47;1.80;;;17.10;99.90;;;;;;5074541;28;20494;-76
2022/09/15 10:21:57;;;;;;;9.50;2.73;;;17.20;99.90;;;;;;5073998;28;20448;-77
2022/09/15 10:24:31;;;;;;;4.90;2.33;;;17.20;99.90;;;;;;5073894;28;20540;-78
2022/09/15 10:27:07;;;;;;;5.63;1.60;;;17.40;99.90;;;;;;5073800;28;20437;-78
2022/09/15 10:29:38;;;;;;;6.47;2.30;;;17.50;99.90;;;;;;5074647;28;20468;-76
2022/09/15 10:32:19;;;;;;;3.23;2.10;;;17.60;99.90;;;;;;5074137;28;20520;-76
2022/09/15 10:34:47;;;;;;;2.80;2.30;;;17.70;99.90;;;;;;5073779;28;20473;-77
2022/09/15 10:37:29;;;;;;;3.77;2.53;;;17.80;99.90;;;;;;5073844;28;20449;-77
2022/09/15 10:39:58;;;;;;;3.77;1.60;;;17.80;99.90;;;;;;5075363;28;20552;-77
2022/09/15 10:42:44;;;;;;;5.13;1.73;;;17.90;99.30;;;;;;5079320;28;20632;-78
2022/09/15 10:45:18;;;;;;;2.07;1.23;;;17.80;99.90;;;;;;5077504;28;20448;-77
2022/09/15 10:48:02;;;;;;;1.53;1.23;;;17.90;1.00;;;;;;5075285;28;20422;-77
2022/09/15 10:50:32;;;;;;;5.10;1.90;;;17.90;1.00;;;;;;5074264;28;20504;-77
2022/09/15 10:53:13;;;;;;;2.70;2.00;;;17.80;1.00;;;;;;5073381;28;20494;-77
2022/09/15 10:55:49;;;;;;;3.70;1.27;;;17.90;1.00;;;;;;5076487;28;20468;-77
2022/09/15 10:58:40;;;;;;;1.97;1.50;;;18.00;1.00;;;;;;5073687;28;20421;-77
2022/09/15 11:01:24;;;;;;;3.77;1.83;;;18.20;1.00;;;;;;5072938;28;20459;-77
2022/09/15 11:04:24;;;;;;;4.20;1.77;;;18.40;1.00;;;;;;5074373;28;20460;-76
2022/09/15 11:06:59;;;;;;;3.93;1.30;;;18.50;1.00;;;;;;5073271;28;20777;-77
2022/09/15 11:09:33;;;;;;;4.20;1.40;;;18.30;1.00;;;;;;5073176;28;20475;-77
2022/09/15 11:12:13;;;;;;;2.10;1.20;;;18.20;1.00;;;;;;5072807;28;20435;-77
2022/09/15 11:14:53;;;;;;;3.70;1.30;;;18.00;1.00;;;;;;5072956;28;20465;-77
2022/09/15 11:17:33;;;;;;;2.83;1.63;;;17.90;1.00;;;;;;5073157;28;20482;-77
2022/09/15 11:20:14;;;;;;;2.40;1.53;;;17.90;1.00;;;;;;5072921;28;20521;-77
2022/09/15 11:22:48;;;;;;;3.10;1.40;;;17.90;1.00;;;;;;5076136;28;20433;-77
2022/09/15 11:25:20;;;;;;;2.97;1.47;;;17.80;1.00;;;;;;5076554;28;20428;-77
2022/09/15 11:27:53;;;;;;;1.60;1.00;;;17.70;1.00;;;;;;5076705;28;20429;-77
2022/09/15 11:30:24;;;;;;;3.13;1.50;;;17.50;1.00;;;;;;5076388;28;20506;-77
2022/09/15 11:33:00;;;;;;;3.60;1.40;;;17.50;1.00;;;;;;5077190;28;20444;-77
2022/09/15 11:35:50;;;;;;;3.00;1.20;;;17.80;1.00;;;;;;5076563;28;20517;-77
2022/09/15 11:38:30;;;;;;;4.87;1.43;;;17.60;1.00;;;;;;5073135;28;20527;-77
2022/09/15 11:41:10;;;;;;;3.40;1.90;;;17.60;1.00;;;;;;5075790;28;20464;-77
2022/09/15 11:43:44;;;;;;;5.97;1.20;;;17.60;1.00;;;;;;5076112;28;20439;-77
2022/09/15 11:46:15;;;;;;;3.43;1.17;;;17.60;1.00;;;;;;5075844;28;20791;-77
2022/09/15 11:48:45;;;;;;;6.37;1.60;;;17.50;1.00;;;;;;5076101;28;20478;-77
2022/09/15 11:51:15;;;;;;;2.30;1.30;;;17.60;1.00;;;;;;5076690;28;20830;-78
2022/09/15 11:53:50;;;;;;;11.60;3.43;;;17.60;1.00;;;;;;5076009;28;20475;-77
2022/09/15 11:56:24;;;;;;;4.20;2.27;;;17.50;1.00;;;;;;5076422;28;20519;-77
2022/09/15 11:59:04;;;;;;;5.17;1.77;;;17.80;18.90;;;;;;5077643;28;20432;-78
2022/09/15 12:01:37;;;;;;;1.40;1.30;;;17.40;1.00;;;;;;5076957;28;20433;-77
2022/09/15 12:04:11;;;;;;;3.80;1.57;;;17.40;1.00;;;;;;5076368;28;20430;-77
2022/09/15 12:06:44;;;;;;;4.57;1.80;;;17.50;1.00;;;;;;5076495;28;20427;-77
2022/09/15 12:09:13;;;;;;;3.80;1.80;;;17.50;1.00;;;;;;5075544;28;20472;-77
2022/09/15 12:11:45;;;;;;;5.10;1.73;;;17.40;1.00;;;;;;5076363;28;20449;-77
2022/09/15 12:14:16;;;;;;;4.20;1.70;;;17.40;1.00;;;;;;5076224;28;20435;-76
2022/09/15 12:16:43;;;;;;;3.07;1.50;;;17.40;1.00;;;;;;5076299;28;20429;-77
2022/09/15 12:19:15;;;;;;;3.43;1.80;;;17.50;1.00;;;;;;5076042;28;20829;-78
2022/09/15 12:21:50;;;;;;;4.90;2.50;;;17.60;1.00;;;;;;5076135;28;20429;-77
2022/09/15 12:24:23;;;;;;;3.33;2.70;;;17.60;1.00;;;;;;5079243;28;20425;-77
2022/09/15 12:26:51;;;;;;;2.40;1.50;;;17.40;6.50;;;;;;5081470;28;20483;-77
2022/09/15 12:29:49;;;;;;;5.03;1.33;;;17.50;1.00;;;;;;5081407;28;20465;-77
2022/09/15 12:32:25;;;;;;;6.93;1.37;;;17.40;1.00;;;;;;5040830;28;20514;-77
2022/09/15 12:35:07;;;;;;;3.13;1.27;;;17.30;1.00;;;;;;5074839;28;20465;-77
2022/09/15 12:37:42;;;;;;;3.23;1.70;;;17.20;1.00;;;;;;5074979;28;20915;-78
2022/09/15 12:40:32;;;;;;;4.60;1.70;;;17.10;1.00;;;;;;5074787;28;20551;-78
2022/09/15 12:43:01;;;;;;;5.17;2.60;;;17.00;1.00;;;;;;5074862;28;20516;-77
2022/09/15 12:45:31;;;;;;;3.67;2.50;;;17.10;1.00;;;;;;5075254;28;20510;-77
2022/09/15 12:48:02;;;;;;;2.50;1.70;;;17.00;1.00;;;;;;5076055;28;20456;-77
2022/09/15 12:50:31;;;;;;;4.90;2.07;;;17.10;1.00;;;;;;5075599;28;20469;-77
2022/09/15 12:53:02;;;;;;;1.57;1.40;;;17.20;52.10;;;;;;5076329;28;20456;-78
2022/09/15 12:55:33;;;;;;;3.40;1.83;;;17.20;1.00;;;;;;5075191;28;20534;-77
2022/09/15 12:58:08;;;;;;;1.53;1.13;;;17.20;1.00;;;;;;5075461;28;20931;-77
2022/09/15 13:00:37;;;;;;;5.37;1.93;;;17.30;1.00;;;;;;5075703;28;20464;-78
2022/09/15 13:03:06;;;;;;;4.30;1.53;;;17.40;1.00;;;;;;5075438;28;20941;-77
2022/09/15 13:06:15;;;;;;;4.90;2.67;;;17.40;1.00;;;;;;5075761;28;20467;-79
2022/09/15 13:08:46;;;;;;;6.20;1.97;;;17.70;1.00;;;;;;5075982;28;20516;-77
2022/09/15 13:11:16;;;;;;;3.20;1.90;;;17.50;1.00;;;;;;5075990;28;20927;-77
2022/09/15 13:13:53;;;;;;;5.97;1.70;;;17.70;92.40;;;;;;5075919;28;20444;-77